메인 페이지
METAR-TAF:

METAR-TAF

공항 :

핏사눌록 공항

핏사눌록, 타이

위도: 16-46-23N, 경도: 100-16-56E, 고도: 47m

현재 날씨관측

예보는 4 시간 7분 전, 12:00시(UTC)에 발표되었습니다.
남남서4kt
온도 34°C
습도 60%
기압 1002 hPa
시정 10km 이상
1500m 미만 상공 구름 및 적란운 없음

METAR: VTPP 201200Z 20004KT CAVOK 34/25 Q1002 NOSIG

시각: 23:07 (16:07 UTC)

예보

예보는 5 시간 7분 전, 11:00시(UTC)에 발표되었습니다.
예보 대상 시간: 20일 12시부터 21일 12시까지 (UTC)
서남서5kt
시정 10km 이상
고도 3000ft 상공 구름 보통
일시적
20일 12시부터 20일 16시까지 (UTC)
북서15kt, 순간 최대 풍속 25kt
시정: 4000m
고도 2500ft 상공 구름 조금, 적란운.
고도 3000ft 상공 구름 많음
뇌우, 비
일시적
20일 18시부터 20일 22시까지 (UTC)
북북동15kt, 순간 최대 풍속 25kt
시정: 4000m
고도 2500ft 상공 구름 조금, 적란운.
고도 3000ft 상공 구름 많음
뇌우, 비
전환 중
20일 22시부터 20일 24시까지 (UTC)
남동5kt

TAF: VTPP 201100Z 2012/2112 25005KT 9999 SCT030 TEMPO 2012/2016 32015G25KT 4000 TSRA FEW025CB BKN030 TEMPO 2018/2022 02015G25KT 4000 TSRA FEW025CB BKN030 BECMG 2022/2024 14005KT

4,000개 이상의 공항 관측 자료 및 예보 (METAR 및 TAF 보고).

지도상에서 검색 가능한 기상관측소가 노란 점과 빨간 점으로 표시되어 있습니다.

기상관측소 명을 보려면 표시 위로 마우스를 이동하세요.

날씨 관측과 예보를 보려면 클릭하세요.

지도 변경 : 확대하려면 엑스 표시가 있는 녹색 버튼, 축소하려면 빼기 표시가 있는 녹색 버튼, 다음 페이지의 지도를 보려면 녹색 화살표를 클릭하세요.


METAR-TAF: